sensor_id;sensor_type;location;lat;lon;timestamp;pressure;altitude;pressure_sealevel;temperature;humidity
77482;BME280;66582;43.004;-75.010;2023-07-29T00:02:23;99826.20;;;33.68;48.06
77482;BME280;66582;43.004;-75.010;2023-07-29T00:04:48;99822.95;;;33.96;46.20
77482;BME280;66582;43.004;-75.010;2023-07-29T00:07:13;99823.69;;;33.27;48.57
77482;BME280;66582;43.004;-75.010;2023-07-29T00:09:39;99821.61;;;33.42;48.60
77482;BME280;66582;43.004;-75.010;2023-07-29T00:12:05;99818.58;;;33.51;48.69
77482;BME280;66582;43.004;-75.010;2023-07-29T00:14:30;99818.54;;;33.23;49.82
77482;BME280;66582;43.004;-75.010;2023-07-29T00:16:55;99814.01;;;33.17;48.86
77482;BME280;66582;43.004;-75.010;2023-07-29T00:19:21;99820.64;;;33.31;49.82
77482;BME280;66582;43.004;-75.010;2023-07-29T00:21:47;99815.86;;;32.55;51.39
77482;BME280;66582;43.004;-75.010;2023-07-29T00:24:12;99813.67;;;32.79;51.64
77482;BME280;66582;43.004;-75.010;2023-07-29T00:26:37;99814.44;;;33.28;50.02
77482;BME280;66582;43.004;-75.010;2023-07-29T00:29:03;99810.73;;;32.99;50.97
77482;BME280;66582;43.004;-75.010;2023-07-29T00:31:28;99804.88;;;33.52;48.68
77482;BME280;66582;43.004;-75.010;2023-07-29T00:33:55;99810.52;;;32.97;50.46
77482;BME280;66582;43.004;-75.010;2023-07-29T00:36:19;99814.14;;;31.99;52.83
77482;BME280;66582;43.004;-75.010;2023-07-29T00:38:45;99815.43;;;31.80;53.17
77482;BME280;66582;43.004;-75.010;2023-07-29T00:41:12;99820.86;;;31.99;53.35
77482;BME280;66582;43.004;-75.010;2023-07-29T00:43:36;99822.66;;;31.54;55.32
77482;BME280;66582;43.004;-75.010;2023-07-29T00:46:01;99823.54;;;30.58;57.99
77482;BME280;66582;43.004;-75.010;2023-07-29T00:48:27;99830.22;;;27.82;72.31
77482;BME280;66582;43.004;-75.010;2023-07-29T00:50:52;99828.55;;;28.15;73.70
77482;BME280;66582;43.004;-75.010;2023-07-29T00:53:18;99827.52;;;27.25;80.99
77482;BME280;66582;43.004;-75.010;2023-07-29T00:55:44;99830.81;;;27.01;84.40
77482;BME280;66582;43.004;-75.010;2023-07-29T00:58:11;99828.82;;;28.02;81.65
77482;BME280;66582;43.004;-75.010;2023-07-29T01:00:35;99834.91;;;25.95;93.85
77482;BME280;66582;43.004;-75.010;2023-07-29T01:03:00;99828.75;;;28.44;79.73
77482;BME280;66582;43.004;-75.010;2023-07-29T01:05:29;99830.53;;;28.06;77.86
77482;BME280;66582;43.004;-75.010;2023-07-29T01:07:55;99829.78;;;28.96;76.37
77482;BME280;66582;43.004;-75.010;2023-07-29T01:10:24;99833.16;;;29.72;70.53
77482;BME280;66582;43.004;-75.010;2023-07-29T01:12:47;99830.81;;;30.64;66.15
77482;BME280;66582;43.004;-75.010;2023-07-29T01:15:12;99834.23;;;30.69;65.61
77482;BME280;66582;43.004;-75.010;2023-07-29T01:17:35;99834.09;;;30.99;63.71
77482;BME280;66582;43.004;-75.010;2023-07-29T01:20:02;99831.55;;;31.07;62.46
77482;BME280;66582;43.004;-75.010;2023-07-29T01:22:24;99830.06;;;30.58;63.90
77482;BME280;66582;43.004;-75.010;2023-07-29T01:24:48;99833.43;;;27.50;76.34
77482;BME280;66582;43.004;-75.010;2023-07-29T01:27:15;99840.57;;;25.64;90.19
77482;BME280;66582;43.004;-75.010;2023-07-29T01:29:40;99843.57;;;26.05;94.25
77482;BME280;66582;43.004;-75.010;2023-07-29T01:32:10;99846.01;;;27.55;83.93
77482;BME280;66582;43.004;-75.010;2023-07-29T01:34:35;99849.65;;;28.55;77.24
77482;BME280;66582;43.004;-75.010;2023-07-29T01:36:57;99850.41;;;28.38;76.66
77482;BME280;66582;43.004;-75.010;2023-07-29T01:39:22;99852.14;;;27.19;82.12
77482;BME280;66582;43.004;-75.010;2023-07-29T01:41:46;99854.49;;;26.68;85.03
77482;BME280;66582;43.004;-75.010;2023-07-29T01:44:13;99852.02;;;28.16;78.28
77482;BME280;66582;43.004;-75.010;2023-07-29T01:46:38;99852.67;;;27.47;80.81
77482;BME280;66582;43.004;-75.010;2023-07-29T01:49:03;99856.35;;;27.85;78.86
77482;BME280;66582;43.004;-75.010;2023-07-29T01:51:29;99861.73;;;25.32;92.93
77482;BME280;66582;43.004;-75.010;2023-07-29T01:53:55;99856.55;;;27.82;81.93
77482;BME280;66582;43.004;-75.010;2023-07-29T01:56:20;99862.67;;;28.20;79.71
77482;BME280;66582;43.004;-75.010;2023-07-29T01:58:45;99861.97;;;28.32;77.03
77482;BME280;66582;43.004;-75.010;2023-07-29T02:01:09;99859.70;;;28.82;72.92
77482;BME280;66582;43.004;-75.010;2023-07-29T02:03:36;99858.51;;;28.37;73.15
77482;BME280;66582;43.004;-75.010;2023-07-29T02:06:01;99863.43;;;27.36;77.63
77482;BME280;66582;43.004;-75.010;2023-07-29T02:08:27;99867.73;;;26.95;81.88
77482;BME280;66582;43.004;-75.010;2023-07-29T02:10:51;99860.88;;;28.50;73.75
77482;BME280;66582;43.004;-75.010;2023-07-29T02:13:17;99866.64;;;27.95;76.14
77482;BME280;66582;43.004;-75.010;2023-07-29T02:15:43;99871.59;;;27.51;80.94
77482;BME280;66582;43.004;-75.010;2023-07-29T02:18:08;99869.69;;;28.14;75.84
77482;BME280;66582;43.004;-75.010;2023-07-29T02:20:34;99873.61;;;26.68;84.43
77482;BME280;66582;43.004;-75.010;2023-07-29T02:22:59;99873.35;;;26.96;84.14
77482;BME280;66582;43.004;-75.010;2023-07-29T02:25:25;99875.10;;;24.89;94.44
77482;BME280;66582;43.004;-75.010;2023-07-29T02:27:50;99872.27;;;25.83;91.74
77482;BME280;66582;43.004;-75.010;2023-07-29T02:30:17;99869.62;;;27.11;85.05
77482;BME280;66582;43.004;-75.010;2023-07-29T02:32:41;99868.93;;;26.67;85.72
77482;BME280;66582;43.004;-75.010;2023-07-29T02:35:07;99868.24;;;26.09;88.42
77482;BME280;66582;43.004;-75.010;2023-07-29T02:37:32;99868.52;;;26.10;90.40
77482;BME280;66582;43.004;-75.010;2023-07-29T02:39:58;99870.38;;;25.78;93.24
77482;BME280;66582;43.004;-75.010;2023-07-29T02:42:22;99875.33;;;23.25;100.00
77482;BME280;66582;43.004;-75.010;2023-07-29T02:44:48;99872.34;;;24.82;99.30
77482;BME280;66582;43.004;-75.010;2023-07-29T02:47:14;99865.52;;;25.15;96.32
77482;BME280;66582;43.004;-75.010;2023-07-29T02:49:39;99867.10;;;23.71;100.00
77482;BME280;66582;43.004;-75.010;2023-07-29T02:52:05;99863.91;;;24.94;100.00
77482;BME280;66582;43.004;-75.010;2023-07-29T02:54:30;99862.32;;;25.29;100.00
77482;BME280;66582;43.004;-75.010;2023-07-29T02:56:55;99866.71;;;23.86;100.00
77482;BME280;66582;43.004;-75.010;2023-07-29T02:59:21;99867.01;;;24.96;100.00
77482;BME280;66582;43.004;-75.010;2023-07-29T03:01:46;99855.19;;;25.98;95.10
77482;BME280;66582;43.004;-75.010;2023-07-29T03:04:12;99852.99;;;25.90;94.17
77482;BME280;66582;43.004;-75.010;2023-07-29T03:06:38;99854.48;;;26.89;88.25
77482;BME280;66582;43.004;-75.010;2023-07-29T03:09:03;99856.45;;;26.67;86.26
77482;BME280;66582;43.004;-75.010;2023-07-29T03:11:28;99856.48;;;26.34;91.91
77482;BME280;66582;43.004;-75.010;2023-07-29T03:13:53;99865.20;;;23.87;100.00
77482;BME280;66582;43.004;-75.010;2023-07-29T03:16:19;99865.63;;;23.98;100.00
77482;BME280;66582;43.004;-75.010;2023-07-29T03:18:45;99869.25;;;24.59;98.68
77482;BME280;66582;43.004;-75.010;2023-07-29T03:21:11;99868.14;;;25.92;93.79
77482;BME280;66582;43.004;-75.010;2023-07-29T03:23:36;99868.88;;;25.99;93.52
77482;BME280;66582;43.004;-75.010;2023-07-29T03:26:02;99870.21;;;25.34;96.07
77482;BME280;66582;43.004;-75.010;2023-07-29T03:28:28;99864.29;;;26.09;91.60
77482;BME280;66582;43.004;-75.010;2023-07-29T03:30:53;99860.56;;;26.45;90.05
77482;BME280;66582;43.004;-75.010;2023-07-29T03:33:18;99857.75;;;23.78;100.00
77482;BME280;66582;43.004;-75.010;2023-07-29T03:35:43;99859.15;;;23.53;100.00
77482;BME280;66582;43.004;-75.010;2023-07-29T03:38:10;99864.05;;;24.82;100.00
77482;BME280;66582;43.004;-75.010;2023-07-29T03:40:34;99863.68;;;25.12;99.16
77482;BME280;66582;43.004;-75.010;2023-07-29T03:42:59;99866.34;;;23.78;100.00
77482;BME280;66582;43.004;-75.010;2023-07-29T03:45:25;99864.56;;;26.00;95.60
77482;BME280;66582;43.004;-75.010;2023-07-29T03:47:50;99868.29;;;22.82;100.00
77482;BME280;66582;43.004;-75.010;2023-07-29T03:50:17;99863.41;;;22.70;100.00
77482;BME280;66582;43.004;-75.010;2023-07-29T03:52:41;99857.56;;;23.41;100.00
77482;BME280;66582;43.004;-75.010;2023-07-29T03:55:08;99862.60;;;22.08;100.00
77482;BME280;66582;43.004;-75.010;2023-07-29T03:57:33;99862.97;;;23.25;100.00
77482;BME280;66582;43.004;-75.010;2023-07-29T03:59:59;99864.28;;;23.33;100.00
77482;BME280;66582;43.004;-75.010;2023-07-29T04:02:23;99858.30;;;26.49;97.18
77482;BME280;66582;43.004;-75.010;2023-07-29T04:04:50;99859.85;;;26.93;90.70
77482;BME280;66582;43.004;-75.010;2023-07-29T04:07:15;99857.42;;;27.76;84.78
77482;BME280;66582;43.004;-75.010;2023-07-29T04:09:41;99863.35;;;27.43;84.47
77482;BME280;66582;43.004;-75.010;2023-07-29T04:12:07;99860.78;;;28.23;81.00
77482;BME280;66582;43.004;-75.010;2023-07-29T04:14:31;99860.47;;;27.72;82.47
77482;BME280;66582;43.004;-75.010;2023-07-29T04:16:57;99865.53;;;26.80;87.65
77482;BME280;66582;43.004;-75.010;2023-07-29T04:19:22;99867.67;;;26.07;91.24
77482;BME280;66582;43.004;-75.010;2023-07-29T04:21:48;99864.95;;;26.62;89.25
77482;BME280;66582;43.004;-75.010;2023-07-29T04:24:14;99857.10;;;27.97;83.85
77482;BME280;66582;43.004;-75.010;2023-07-29T04:26:38;99855.21;;;28.49;82.18
77482;BME280;66582;43.004;-75.010;2023-07-29T04:29:04;99850.82;;;27.15;84.19
77482;BME280;66582;43.004;-75.010;2023-07-29T04:31:30;99851.87;;;26.95;86.25
77482;BME280;66582;43.004;-75.010;2023-07-29T04:33:55;99850.67;;;26.28;89.09
77482;BME280;66582;43.004;-75.010;2023-07-29T04:36:20;99846.98;;;26.24;88.51
77482;BME280;66582;43.004;-75.010;2023-07-29T04:38:46;99838.69;;;26.97;83.65
77482;BME280;66582;43.004;-75.010;2023-07-29T04:41:13;99836.41;;;28.48;78.02
77482;BME280;66582;43.004;-75.010;2023-07-29T04:43:38;99837.77;;;27.47;81.28
77482;BME280;66582;43.004;-75.010;2023-07-29T04:46:06;99837.12;;;27.82;82.62
77482;BME280;66582;43.004;-75.010;2023-07-29T04:48:29;99835.70;;;28.01;79.06
77482;BME280;66582;43.004;-75.010;2023-07-29T04:50:54;99827.19;;;28.08;76.76
77482;BME280;66582;43.004;-75.010;2023-07-29T04:53:19;99820.95;;;29.27;72.27
77482;BME280;66582;43.004;-75.010;2023-07-29T04:55:45;99822.55;;;26.04;85.16
77482;BME280;66582;43.004;-75.010;2023-07-29T04:58:11;99825.65;;;24.15;99.58
77482;BME280;66582;43.004;-75.010;2023-07-29T05:00:36;99821.21;;;22.79;100.00
77482;BME280;66582;43.004;-75.010;2023-07-29T05:03:01;99813.41;;;24.61;100.00
77482;BME280;66582;43.004;-75.010;2023-07-29T05:05:26;99805.05;;;25.05;96.35
77482;BME280;66582;43.004;-75.010;2023-07-29T05:07:51;99806.84;;;25.27;98.33
77482;BME280;66582;43.004;-75.010;2023-07-29T05:10:17;99810.34;;;26.72;88.65
77482;BME280;66582;43.004;-75.010;2023-07-29T05:12:43;99805.73;;;28.02;80.94
77482;BME280;66582;43.004;-75.010;2023-07-29T05:15:09;99807.90;;;29.61;73.25
77482;BME280;66582;43.004;-75.010;2023-07-29T05:17:33;99798.27;;;30.70;68.64
77482;BME280;66582;43.004;-75.010;2023-07-29T05:19:59;99804.30;;;28.03;76.22
77482;BME280;66582;43.004;-75.010;2023-07-29T05:22:24;99809.87;;;26.21;87.16
77482;BME280;66582;43.004;-75.010;2023-07-29T05:24:50;99808.88;;;27.05;86.19
77482;BME280;66582;43.004;-75.010;2023-07-29T05:27:15;99813.65;;;26.85;84.91
77482;BME280;66582;43.004;-75.010;2023-07-29T05:29:40;99824.01;;;25.86;92.17
77482;BME280;66582;43.004;-75.010;2023-07-29T05:32:07;99818.57;;;26.07;90.74
77482;BME280;66582;43.004;-75.010;2023-07-29T05:34:32;99808.54;;;27.72;85.68
77482;BME280;66582;43.004;-75.010;2023-07-29T05:36:57;99798.67;;;27.76;80.39
77482;BME280;66582;43.004;-75.010;2023-07-29T05:39:22;99796.51;;;26.88;80.92
77482;BME280;66582;43.004;-75.010;2023-07-29T05:41:48;99792.60;;;28.75;74.46
77482;BME280;66582;43.004;-75.010;2023-07-29T05:44:14;99786.48;;;26.86;82.33
77482;BME280;66582;43.004;-75.010;2023-07-29T05:46:39;99787.79;;;26.12;88.30
77482;BME280;66582;43.004;-75.010;2023-07-29T05:49:05;99791.42;;;26.75;84.97
77482;BME280;66582;43.004;-75.010;2023-07-29T05:51:31;99789.72;;;26.83;85.05
77482;BME280;66582;43.004;-75.010;2023-07-29T05:53:56;99791.51;;;27.86;78.74
77482;BME280;66582;43.004;-75.010;2023-07-29T05:56:21;99796.69;;;26.34;86.67
77482;BME280;66582;43.004;-75.010;2023-07-29T05:58:47;99797.06;;;26.78;85.58
77482;BME280;66582;43.004;-75.010;2023-07-29T06:01:13;99787.04;;;27.68;80.13
77482;BME280;66582;43.004;-75.010;2023-07-29T06:03:38;99781.75;;;27.39;78.92
77482;BME280;66582;43.004;-75.010;2023-07-29T06:06:03;99774.53;;;27.34;79.66
77482;BME280;66582;43.004;-75.010;2023-07-29T06:08:29;99779.38;;;26.94;82.74
77482;BME280;66582;43.004;-75.010;2023-07-29T06:10:54;99776.34;;;29.00;72.93
77482;BME280;66582;43.004;-75.010;2023-07-29T06:13:20;99771.54;;;27.02;77.57
77482;BME280;66582;43.004;-75.010;2023-07-29T06:15:45;99779.17;;;24.43;91.35
77482;BME280;66582;43.004;-75.010;2023-07-29T06:18:10;99776.61;;;24.28;98.49
77482;BME280;66582;43.004;-75.010;2023-07-29T06:20:37;99767.68;;;24.01;97.54
77482;BME280;66582;43.004;-75.010;2023-07-29T06:23:02;99755.68;;;26.08;88.04
77482;BME280;66582;43.004;-75.010;2023-07-29T06:25:28;99750.74;;;25.73;89.53
77482;BME280;66582;43.004;-75.010;2023-07-29T06:27:53;99745.07;;;26.15;88.61
77482;BME280;66582;43.004;-75.010;2023-07-29T06:30:18;99741.88;;;26.85;82.81
77482;BME280;66582;43.004;-75.010;2023-07-29T06:32:43;99743.07;;;26.10;87.17
77482;BME280;66582;43.004;-75.010;2023-07-29T06:35:10;99743.66;;;25.78;89.51
77482;BME280;66582;43.004;-75.010;2023-07-29T06:37:36;99747.81;;;26.72;85.97
77482;BME280;66582;43.004;-75.010;2023-07-29T06:40:01;99745.85;;;27.68;80.44
77482;BME280;66582;43.004;-75.010;2023-07-29T06:42:26;99738.81;;;28.68;74.13
77482;BME280;66582;43.004;-75.010;2023-07-29T06:44:51;99737.10;;;27.47;77.98
77482;BME280;66582;43.004;-75.010;2023-07-29T06:47:17;99732.63;;;26.76;80.74
77482;BME280;66582;43.004;-75.010;2023-07-29T06:49:42;99730.48;;;26.72;80.41
77482;BME280;66582;43.004;-75.010;2023-07-29T06:52:08;99719.07;;;27.59;76.46
77482;BME280;66582;43.004;-75.010;2023-07-29T06:54:33;99704.35;;;27.24;76.90
77482;BME280;66582;43.004;-75.010;2023-07-29T06:56:59;99699.66;;;28.23;73.55
77482;BME280;66582;43.004;-75.010;2023-07-29T06:59:24;99690.34;;;28.95;70.05
77482;BME280;66582;43.004;-75.010;2023-07-29T07:01:50;99687.38;;;28.91;68.96
77482;BME280;66582;43.004;-75.010;2023-07-29T07:04:16;99691.15;;;27.11;76.74
77482;BME280;66582;43.004;-75.010;2023-07-29T07:06:41;99699.57;;;25.11;90.27
77482;BME280;66582;43.004;-75.010;2023-07-29T07:09:07;99691.00;;;26.51;82.49
77482;BME280;66582;43.004;-75.010;2023-07-29T07:11:33;99685.70;;;25.89;84.29
77482;BME280;66582;43.004;-75.010;2023-07-29T07:13:58;99683.02;;;28.49;74.23
77482;BME280;66582;43.004;-75.010;2023-07-29T07:16:23;99676.76;;;28.53;73.17
77482;BME280;66582;43.004;-75.010;2023-07-29T07:18:49;99673.88;;;29.51;69.20
77482;BME280;66582;43.004;-75.010;2023-07-29T07:21:14;99678.50;;;29.11;68.84
77482;BME280;66582;43.004;-75.010;2023-07-29T07:23:40;99681.95;;;28.77;69.45
77482;BME280;66582;43.004;-75.010;2023-07-29T07:26:05;99679.99;;;27.74;73.70
77482;BME280;66582;43.004;-75.010;2023-07-29T07:28:31;99675.35;;;27.27;76.00
77482;BME280;66582;43.004;-75.010;2023-07-29T07:30:56;99679.89;;;28.15;73.10
77482;BME280;66582;43.004;-75.010;2023-07-29T07:33:21;99678.75;;;26.17;81.78
77482;BME280;66582;43.004;-75.010;2023-07-29T07:35:46;99687.17;;;24.52;94.57
77482;BME280;66582;43.004;-75.010;2023-07-29T07:38:13;99689.67;;;23.87;98.84
77482;BME280;66582;43.004;-75.010;2023-07-29T07:40:37;99702.25;;;23.50;100.00
77482;BME280;66582;43.004;-75.010;2023-07-29T07:43:03;99708.09;;;24.28;99.67
77482;BME280;66582;43.004;-75.010;2023-07-29T07:45:28;99706.80;;;23.45;100.00
77482;BME280;66582;43.004;-75.010;2023-07-29T07:47:54;99710.55;;;24.25;98.57
77482;BME280;66582;43.004;-75.010;2023-07-29T07:50:20;99706.81;;;26.09;91.55
77482;BME280;66582;43.004;-75.010;2023-07-29T07:52:46;99712.06;;;25.92;88.16
77482;BME280;66582;43.004;-75.010;2023-07-29T07:55:10;99717.26;;;26.80;84.82
77482;BME280;66582;43.004;-75.010;2023-07-29T07:57:36;99721.50;;;26.65;82.66
77482;BME280;66582;43.004;-75.010;2023-07-29T08:00:02;99716.83;;;27.88;77.93
77482;BME280;66582;43.004;-75.010;2023-07-29T08:02:28;99723.50;;;24.68;90.87
77482;BME280;66582;43.004;-75.010;2023-07-29T08:04:54;99725.10;;;25.33;87.40
77482;BME280;66582;43.004;-75.010;2023-07-29T08:07:19;99730.80;;;27.89;76.53
77482;BME280;66582;43.004;-75.010;2023-07-29T08:09:44;99741.27;;;27.14;78.40
77482;BME280;66582;43.004;-75.010;2023-07-29T08:12:09;99745.92;;;26.92;79.26
77482;BME280;66582;43.004;-75.010;2023-07-29T08:14:35;99749.41;;;27.20;76.92
77482;BME280;66582;43.004;-75.010;2023-07-29T08:17:01;99751.49;;;27.52;78.21
77482;BME280;66582;43.004;-75.010;2023-07-29T08:19:27;99745.83;;;25.53;83.07
77482;BME280;66582;43.004;-75.010;2023-07-29T08:21:53;99742.39;;;21.85;100.00
77482;BME280;66582;43.004;-75.010;2023-07-29T08:24:17;99736.23;;;20.95;100.00
77482;BME280;66582;43.004;-75.010;2023-07-29T08:26:44;99732.10;;;21.31;100.00
77482;BME280;66582;43.004;-75.010;2023-07-29T08:29:09;99725.71;;;21.11;100.00
77482;BME280;66582;43.004;-75.010;2023-07-29T08:31:35;99721.02;;;23.79;100.00
77482;BME280;66582;43.004;-75.010;2023-07-29T08:34:00;99722.49;;;25.70;94.04
77482;BME280;66582;43.004;-75.010;2023-07-29T08:36:26;99729.57;;;26.44;86.91
77482;BME280;66582;43.004;-75.010;2023-07-29T08:38:51;99729.91;;;23.37;100.00
77482;BME280;66582;43.004;-75.010;2023-07-29T08:41:19;99722.58;;;24.53;96.77
77482;BME280;66582;43.004;-75.010;2023-07-29T08:43:47;99719.25;;;26.31;87.87
77482;BME280;66582;43.004;-75.010;2023-07-29T08:46:07;99717.19;;;26.94;82.29
77482;BME280;66582;43.004;-75.010;2023-07-29T08:48:36;99712.30;;;26.20;86.33
77482;BME280;66582;43.004;-75.010;2023-07-29T08:50:59;99701.60;;;27.10;80.90
77482;BME280;66582;43.004;-75.010;2023-07-29T08:53:24;99697.52;;;27.57;77.02
77482;BME280;66582;43.004;-75.010;2023-07-29T08:55:48;99700.29;;;26.40;81.63
77482;BME280;66582;43.004;-75.010;2023-07-29T08:58:14;99700.41;;;28.50;74.42
77482;BME280;66582;43.004;-75.010;2023-07-29T09:00:40;99695.23;;;29.68;69.53
77482;BME280;66582;43.004;-75.010;2023-07-29T09:03:05;99689.18;;;29.53;67.25
77482;BME280;66582;43.004;-75.010;2023-07-29T09:05:30;99684.16;;;29.01;67.08
77482;BME280;66582;43.004;-75.010;2023-07-29T09:07:56;99682.78;;;25.19;81.35
77482;BME280;66582;43.004;-75.010;2023-07-29T09:10:22;99684.01;;;23.05;98.81
77482;BME280;66582;43.004;-75.010;2023-07-29T09:12:46;99676.80;;;24.69;92.86
77482;BME280;66582;43.004;-75.010;2023-07-29T09:15:12;99684.73;;;24.35;96.95
77482;BME280;66582;43.004;-75.010;2023-07-29T09:17:37;99686.82;;;24.38;96.75
77482;BME280;66582;43.004;-75.010;2023-07-29T09:20:03;99682.47;;;25.33;91.73
77482;BME280;66582;43.004;-75.010;2023-07-29T09:22:29;99677.33;;;26.29;85.80
77482;BME280;66582;43.004;-75.010;2023-07-29T09:24:57;99672.09;;;27.50;79.57
77482;BME280;66582;43.004;-75.010;2023-07-29T09:27:25;99664.04;;;26.89;79.43
77482;BME280;66582;43.004;-75.010;2023-07-29T09:29:45;99657.97;;;25.43;84.20
77482;BME280;66582;43.004;-75.010;2023-07-29T09:32:20;99655.73;;;27.17;77.71
77482;BME280;66582;43.004;-75.010;2023-07-29T09:34:42;99660.28;;;26.75;80.31
77482;BME280;66582;43.004;-75.010;2023-07-29T09:37:01;99662.39;;;27.65;76.14
77482;BME280;66582;43.004;-75.010;2023-07-29T09:39:28;99664.79;;;26.80;78.68
77482;BME280;66582;43.004;-75.010;2023-07-29T09:41:51;99662.79;;;27.54;74.52
77482;BME280;66582;43.004;-75.010;2023-07-29T09:44:16;99654.89;;;28.25;72.97
77482;BME280;66582;43.004;-75.010;2023-07-29T09:46:46;99654.36;;;28.68;71.46
77482;BME280;66582;43.004;-75.010;2023-07-29T09:49:08;99654.16;;;26.83;77.03
77482;BME280;66582;43.004;-75.010;2023-07-29T09:51:37;99652.59;;;27.68;74.76
77482;BME280;66582;43.004;-75.010;2023-07-29T09:54:03;99654.68;;;26.82;76.98
77482;BME280;66582;43.004;-75.010;2023-07-29T09:56:25;99659.74;;;27.56;74.94
77482;BME280;66582;43.004;-75.010;2023-07-29T09:58:50;99671.65;;;28.51;71.41
77482;BME280;66582;43.004;-75.010;2023-07-29T10:01:15;99671.15;;;29.33;67.87
77482;BME280;66582;43.004;-75.010;2023-07-29T10:03:40;99665.41;;;29.71;65.41
77482;BME280;66582;43.004;-75.010;2023-07-29T10:06:06;99660.33;;;30.20;63.57
77482;BME280;66582;43.004;-75.010;2023-07-29T10:08:32;99653.89;;;29.30;64.62
77482;BME280;66582;43.004;-75.010;2023-07-29T10:10:59;99651.12;;;29.38;66.52
77482;BME280;66582;43.004;-75.010;2023-07-29T10:13:23;99657.19;;;26.84;71.48
77482;BME280;66582;43.004;-75.010;2023-07-29T10:15:49;99657.61;;;26.10;77.75
77482;BME280;66582;43.004;-75.010;2023-07-29T10:18:13;99658.78;;;24.96;82.63
77482;BME280;66582;43.004;-75.010;2023-07-29T10:20:39;99662.50;;;23.61;92.29
77482;BME280;66582;43.004;-75.010;2023-07-29T10:23:06;99652.98;;;24.38;91.52
77482;BME280;66582;43.004;-75.010;2023-07-29T10:25:37;99644.78;;;26.49;79.60
77482;BME280;66582;43.004;-75.010;2023-07-29T10:27:59;99644.27;;;27.00;75.85
77482;BME280;66582;43.004;-75.010;2023-07-29T10:30:21;99650.07;;;28.47;70.34
77482;BME280;66582;43.004;-75.010;2023-07-29T10:32:48;99650.94;;;28.75;67.80
77482;BME280;66582;43.004;-75.010;2023-07-29T10:35:13;99653.06;;;27.17;71.67
77482;BME280;66582;43.004;-75.010;2023-07-29T10:37:39;99658.78;;;24.01;89.14
77482;BME280;66582;43.004;-75.010;2023-07-29T10:40:07;99661.13;;;23.95;92.80
77482;BME280;66582;43.004;-75.010;2023-07-29T10:42:29;99652.16;;;25.13;86.85
77482;BME280;66582;43.004;-75.010;2023-07-29T10:44:55;99651.31;;;26.32;81.59
77482;BME280;66582;43.004;-75.010;2023-07-29T10:47:23;99653.63;;;26.66;79.32
77482;BME280;66582;43.004;-75.010;2023-07-29T10:49:48;99654.33;;;24.89;85.18
77482;BME280;66582;43.004;-75.010;2023-07-29T10:52:14;99661.26;;;21.92;100.00
77482;BME280;66582;43.004;-75.010;2023-07-29T10:54:42;99663.89;;;22.31;100.00
77482;BME280;66582;43.004;-75.010;2023-07-29T10:57:04;99663.09;;;25.55;88.84
77482;BME280;66582;43.004;-75.010;2023-07-29T10:59:33;99659.85;;;26.83;81.54
77482;BME280;66582;43.004;-75.010;2023-07-29T11:01:59;99657.82;;;27.70;77.07
77482;BME280;66582;43.004;-75.010;2023-07-29T11:04:24;99658.22;;;26.90;77.31
77482;BME280;66582;43.004;-75.010;2023-07-29T11:11:40;99656.39;;;25.92;82.79
77482;BME280;66582;43.004;-75.010;2023-07-29T11:14:02;99655.48;;;24.58;90.10
77482;BME280;66582;43.004;-75.010;2023-07-29T11:16:27;99657.86;;;24.96;90.21
77482;BME280;66582;43.004;-75.010;2023-07-29T11:18:52;99657.69;;;27.10;77.95
77482;BME280;66582;43.004;-75.010;2023-07-29T11:21:18;99655.58;;;24.73;86.22
77482;BME280;66582;43.004;-75.010;2023-07-29T11:23:42;99651.00;;;27.01;78.91
77482;BME280;66582;43.004;-75.010;2023-07-29T11:26:08;99651.93;;;25.86;81.21
77482;BME280;66582;43.004;-75.010;2023-07-29T11:28:39;99652.17;;;24.74;86.67
77482;BME280;66582;43.004;-75.010;2023-07-29T11:30:59;99652.05;;;25.28;84.33
77482;BME280;66582;43.004;-75.010;2023-07-29T11:33:30;99649.63;;;22.77;99.05
77482;BME280;66582;43.004;-75.010;2023-07-29T11:35:50;99643.16;;;22.05;100.00
77482;BME280;66582;43.004;-75.010;2023-07-29T11:38:18;99645.68;;;22.21;100.00
77482;BME280;66582;43.004;-75.010;2023-07-29T11:40:41;99640.65;;;24.39;99.27
77482;BME280;66582;43.004;-75.010;2023-07-29T11:43:06;99640.26;;;26.66;87.93
77482;BME280;66582;43.004;-75.010;2023-07-29T11:45:32;99639.47;;;24.83;91.90
77482;BME280;66582;43.004;-75.010;2023-07-29T11:47:58;99633.47;;;26.95;84.09
77482;BME280;66582;43.004;-75.010;2023-07-29T11:50:24;99633.11;;;26.75;81.90
77482;BME280;66582;43.004;-75.010;2023-07-29T11:52:49;99628.94;;;26.07;86.64
77482;BME280;66582;43.004;-75.010;2023-07-29T11:55:16;99628.23;;;27.45;82.26
77482;BME280;66582;43.004;-75.010;2023-07-29T11:57:41;99628.14;;;28.84;74.88
77482;BME280;66582;43.004;-75.010;2023-07-29T12:00:08;99633.37;;;28.55;73.33
77482;BME280;66582;43.004;-75.010;2023-07-29T12:02:32;99630.63;;;28.01;75.46
77482;BME280;66582;43.004;-75.010;2023-07-29T12:04:57;99630.01;;;26.88;81.66
77482;BME280;66582;43.004;-75.010;2023-07-29T12:07:22;99633.02;;;27.48;78.66
77482;BME280;66582;43.004;-75.010;2023-07-29T12:09:48;99623.97;;;27.96;77.70
77482;BME280;66582;43.004;-75.010;2023-07-29T12:12:18;99625.26;;;26.97;81.41
77482;BME280;66582;43.004;-75.010;2023-07-29T12:14:39;99635.10;;;23.87;99.06
77482;BME280;66582;43.004;-75.010;2023-07-29T12:17:06;99634.04;;;23.92;100.00
77482;BME280;66582;43.004;-75.010;2023-07-29T12:19:34;99622.28;;;25.93;92.12
77482;BME280;66582;43.004;-75.010;2023-07-29T12:22:00;99625.72;;;27.40;82.38
77482;BME280;66582;43.004;-75.010;2023-07-29T12:24:22;99628.50;;;25.17;95.32
77482;BME280;66582;43.004;-75.010;2023-07-29T12:26:47;99623.23;;;27.85;84.58
77482;BME280;66582;43.004;-75.010;2023-07-29T12:29:12;99616.88;;;29.21;77.06
77482;BME280;66582;43.004;-75.010;2023-07-29T12:31:38;99608.78;;;30.84;68.48
77482;BME280;66582;43.004;-75.010;2023-07-29T12:34:02;99614.18;;;25.91;87.67